This is the latest recevied weather packets stored in our database for station/object WA9SDJ-13. If no packets are shown the sender has not sent any weather packets the latest 1 day(s).
| Time | Temp. | Humidity | Pressure | Rain* | Wind** | Luminosity | Snow |
|---|---|---|---|---|---|---|---|
| 1778044022 | 7.78° C | 88% | 1009.8 hPa | 0.51 mm | 0.89 m/s, 340° | 0 W/m² | - |
| 1778043962 | 7.78° C | 88% | 1009.8 hPa | 0.51 mm | 0.89 m/s, 351° | 0 W/m² | - |
| 1778043902 | 7.78° C | 88% | 1009.7 hPa | 0.51 mm | 0.89 m/s, 351° | 0 W/m² | - |
| 1778043842 | 7.78° C | 88% | 1009.7 hPa | 0.51 mm | 0.89 m/s, 353° | 0 W/m² | - |
| 1778043782 | 7.78° C | 88% | 1009.7 hPa | 0.51 mm | 0.89 m/s, 355° | 0 W/m² | - |
| 1778043722 | 7.78° C | 88% | 1009.7 hPa | 0.51 mm | 0.45 m/s, 357° | 0 W/m² | - |
| 1778043662 | 7.78° C | 88% | 1009.8 hPa | 0.51 mm | 0.45 m/s, 357° | 0 W/m² | - |
| 1778043603 | 7.78° C | 88% | 1009.8 hPa | 0.51 mm | 0.45 m/s, 358° | 0 W/m² | - |
| 1778043551 | 7.78° C | 88% | 1009.7 hPa | 0.51 mm | 0.45 m/s, 358° | 0 W/m² | - |
| 1778043482 | 7.78° C | 88% | 1009.7 hPa | 0.76 mm | 0.89 m/s, 0° | 0 W/m² | - |
| 1778043422 | 7.78° C | 88% | 1009.8 hPa | 0.76 mm | 0.89 m/s, 0° | 0 W/m² | - |
| 1778043362 | 7.78° C | 88% | 1009.7 hPa | 0.76 mm | 0.89 m/s, 0° | 0 W/m² | - |
| 1778043303 | 7.78° C | 88% | 1009.7 hPa | 0.76 mm | 0.89 m/s, 0° | 0 W/m² | - |
| 1778043242 | 7.78° C | 88% | 1009.7 hPa | 0.76 mm | 0.89 m/s, 0° | 0 W/m² | - |
| 1778043182 | 7.78° C | 88% | 1009.7 hPa | 0.76 mm | 0.45 m/s, 357° | 0 W/m² | - |
| 1778043122 | 7.78° C | 88% | 1009.6 hPa | 0.76 mm | 0.45 m/s, 357° | 0 W/m² | - |
| 1778043062 | 7.78° C | 88% | 1009.6 hPa | 0.76 mm | 0.89 m/s, 357° | 0 W/m² | - |
| 1778043003 | 7.78° C | 88% | 1009.7 hPa | 0.76 mm | 1.34 m/s, 357° | 0 W/m² | - |
| 1778042942 | 7.78° C | 88% | 1009.7 hPa | 0.76 mm | 1.34 m/s, 355° | 0 W/m² | - |
| 1778042883 | 7.78° C | 88% | 1009.7 hPa | 0.76 mm | 1.79 m/s, 354° | 0 W/m² | - |
| 1778042822 | 7.78° C | 88% | 1009.8 hPa | 0.76 mm | 1.79 m/s, 17° | 0 W/m² | - |
| 1778042762 | 7.78° C | 88% | 1009.9 hPa | 0.76 mm | 1.79 m/s, 18° | 0 W/m² | - |
| 1778042702 | 7.78° C | 88% | 1009.9 hPa | 1.02 mm | 1.79 m/s, 14° | 0 W/m² | - |
| 1778042642 | 7.78° C | 88% | 1010 hPa | 1.02 mm | 1.34 m/s, 358° | 0 W/m² | - |
| 1778042582 | 7.78° C | 88% | 1009.9 hPa | 1.02 mm | 0.89 m/s, 353° | 0 W/m² | - |
* Rain latest hour (hover to see other rain measurements)
** Current wind speed in m/s (hover to see current wind gust speed)